createdAt,value
2019-03-21T00:00:09.865Z,99.90
2019-03-21T00:03:00.165Z,99.90
2019-03-21T00:06:01.059Z,99.90
2019-03-21T00:08:36.335Z,99.90
2019-03-21T00:11:49.928Z,99.90
2019-03-21T00:14:37.228Z,99.90
2019-03-21T00:17:19.455Z,99.90
2019-03-21T00:19:56.612Z,99.90
2019-03-21T00:22:50.661Z,99.90
2019-03-21T00:25:29.823Z,99.90
2019-03-21T00:28:08.472Z,99.90
2019-03-21T00:30:50.709Z,99.90
2019-03-21T00:33:22.621Z,99.90
2019-03-21T00:36:09.626Z,99.90
2019-03-21T00:38:42.405Z,99.90
2019-03-21T00:44:26.138Z,99.90
2019-03-21T00:47:02.815Z,99.90
2019-03-21T00:49:41.631Z,99.90
2019-03-21T00:52:36.897Z,99.90
2019-03-21T00:55:19.041Z,99.90
2019-03-21T00:58:09.119Z,99.90
2019-03-21T01:01:12.632Z,99.90
2019-03-21T01:04:01.714Z,99.90
2019-03-21T01:06:45.133Z,99.90
2019-03-21T01:09:37.075Z,99.90
2019-03-21T01:12:22.029Z,99.90
2019-03-21T01:14:57.731Z,99.90
2019-03-21T01:17:38.866Z,99.90
2019-03-21T01:20:22.426Z,99.90
2019-03-21T01:22:53.852Z,99.90
2019-03-21T01:25:40.098Z,99.90
2019-03-21T01:28:13.127Z,99.90
2019-03-21T01:30:48.797Z,99.90
2019-03-21T01:33:28.514Z,99.90
2019-03-21T01:36:03.806Z,99.90
2019-03-21T01:38:39.581Z,99.90
2019-03-21T01:41:11.524Z,99.90
2019-03-21T01:43:42.955Z,99.90
2019-03-21T01:46:19.693Z,99.90
2019-03-21T01:48:55.529Z,99.90
2019-03-21T01:51:32.258Z,99.90
2019-03-21T01:54:09.810Z,99.90
2019-03-21T01:56:48.757Z,99.90
2019-03-21T01:59:21.896Z,99.90
2019-03-21T02:01:58.748Z,99.90
2019-03-21T02:04:30.541Z,99.90
2019-03-21T02:07:03.707Z,99.90
2019-03-21T02:09:38.938Z,99.90
2019-03-21T02:12:15.033Z,99.90
2019-03-21T02:14:52.565Z,99.90
2019-03-21T02:17:26.925Z,99.90
2019-03-21T02:20:03.721Z,99.90
2019-03-21T02:22:43.098Z,99.90
2019-03-21T02:25:19.092Z,99.90
2019-03-21T02:27:53.304Z,99.90
2019-03-21T02:30:30.112Z,99.90
2019-03-21T02:33:12.932Z,99.90
2019-03-21T02:35:45.160Z,99.90
2019-03-21T02:38:20.102Z,99.90
2019-03-21T02:40:58.155Z,99.90
2019-03-21T02:43:34.721Z,99.90
2019-03-21T02:46:08.759Z,99.90
2019-03-21T02:48:43.892Z,99.90
2019-03-21T02:51:15.958Z,99.90
2019-03-21T02:53:52.511Z,99.90
2019-03-21T02:56:30.266Z,99.90
2019-03-21T02:59:03.937Z,99.90
2019-03-21T03:01:35.801Z,99.90
2019-03-21T03:04:11.926Z,99.90
2019-03-21T03:06:49.245Z,99.90
2019-03-21T03:09:29.001Z,99.90
2019-03-21T03:12:23.774Z,99.90
2019-03-21T03:14:50.360Z,99.90
2019-03-21T03:17:24.731Z,99.90
2019-03-21T03:20:10.570Z,99.90
2019-03-21T03:22:52.019Z,99.90
2019-03-21T03:25:30.224Z,99.90
2019-03-21T03:28:11.136Z,99.90
2019-03-21T03:30:46.812Z,99.90
2019-03-21T03:33:23.094Z,99.90
2019-03-21T03:35:56.594Z,99.90
2019-03-21T03:38:38.058Z,99.90
2019-03-21T03:41:15.308Z,99.90
2019-03-21T03:43:50.291Z,99.90
2019-03-21T03:46:25.583Z,99.90
2019-03-21T03:49:12.510Z,99.90
2019-03-21T03:51:46.624Z,99.90
2019-03-21T03:54:22.660Z,99.90
2019-03-21T03:56:57.669Z,99.90
2019-03-21T03:59:30.138Z,99.90
2019-03-21T04:02:05.210Z,99.90
2019-03-21T04:04:41.293Z,99.90
2019-03-21T04:07:22.112Z,99.90
2019-03-21T04:09:57.759Z,99.90
2019-03-21T04:12:33.779Z,99.90
2019-03-21T04:15:10.896Z,99.90
2019-03-21T04:17:49.655Z,99.90
2019-03-21T04:20:23.920Z,99.90
2019-03-21T04:22:58.080Z,99.90
2019-03-21T04:25:35.775Z,99.90
2019-03-21T04:28:08.241Z,99.90
2019-03-21T04:30:40.366Z,99.90
2019-03-21T04:33:12.867Z,99.90
2019-03-21T04:35:49.245Z,99.90
2019-03-21T04:38:21.347Z,99.90
2019-03-21T04:40:58.998Z,99.90
2019-03-21T04:43:31.122Z,99.90
2019-03-21T04:46:04.002Z,99.90
2019-03-21T04:48:45.490Z,99.90
2019-03-21T04:51:27.063Z,99.90
2019-03-21T04:54:08.185Z,99.90
2019-03-21T04:56:39.727Z,99.90
2019-03-21T04:59:14.581Z,99.90
2019-03-21T05:01:50.491Z,99.90
2019-03-21T05:04:22.834Z,99.90
2019-03-21T05:06:57.456Z,99.90
2019-03-21T05:09:32.286Z,99.90
2019-03-21T05:12:03.206Z,99.90
2019-03-21T05:14:34.794Z,99.90
2019-03-21T05:17:06.038Z,99.90
2019-03-21T05:19:43.433Z,99.90
2019-03-21T05:22:16.371Z,99.90
2019-03-21T05:24:55.555Z,99.90
2019-03-21T05:27:50.496Z,99.90
2019-03-21T05:30:43.386Z,99.90
2019-03-21T05:33:28.422Z,99.90
2019-03-21T05:36:17.268Z,99.90
2019-03-21T05:38:56.008Z,99.90
2019-03-21T05:41:36.399Z,99.90
2019-03-21T05:44:22.252Z,99.90
2019-03-21T05:46:57.640Z,99.90
2019-03-21T05:49:55.192Z,99.90
2019-03-21T05:52:29.360Z,99.90
2019-03-21T05:55:04.078Z,99.90
2019-03-21T05:57:43.756Z,99.90
2019-03-21T06:00:57.853Z,99.90
2019-03-21T06:04:21.357Z,99.90
2019-03-21T06:07:23.982Z,99.90
2019-03-21T06:10:00.349Z,99.90
2019-03-21T06:13:03.469Z,99.90
2019-03-21T06:15:48.525Z,99.90
2019-03-21T06:18:39.047Z,99.90
2019-03-21T06:21:59.756Z,99.90
2019-03-21T06:25:15.676Z,99.90
2019-03-21T06:27:49.961Z,99.90
2019-03-21T06:30:25.195Z,99.90
2019-03-21T06:33:02.688Z,99.90
2019-03-21T06:35:59.469Z,99.90
2019-03-21T06:38:46.858Z,99.90
2019-03-21T06:41:32.975Z,99.90
2019-03-21T06:48:16.395Z,99.90
2019-03-21T06:51:11.698Z,99.90
2019-03-21T06:53:52.458Z,99.90
2019-03-21T06:56:52.296Z,99.90
2019-03-21T06:59:32.695Z,99.90
2019-03-21T07:02:04.245Z,99.90
2019-03-21T07:05:30.606Z,99.90
2019-03-21T07:08:03.292Z,99.90
2019-03-21T07:11:10.177Z,99.90
2019-03-21T07:13:53.323Z,99.90
2019-03-21T07:16:35.958Z,99.90
2019-03-21T07:19:14.460Z,99.90
2019-03-21T07:21:48.928Z,99.90
2019-03-21T07:24:42.983Z,99.90
2019-03-21T07:27:26.412Z,99.90
2019-03-21T07:30:13.152Z,99.90
2019-03-21T07:32:49.545Z,99.90
2019-03-21T07:35:21.815Z,99.90
2019-03-21T07:38:02.864Z,99.90
2019-03-21T07:41:03.593Z,99.90
2019-03-21T07:43:42.987Z,99.90
2019-03-21T07:46:37.929Z,99.90
2019-03-21T07:49:27.215Z,99.90
2019-03-21T07:52:00.797Z,99.90
2019-03-21T07:54:48.466Z,99.90
2019-03-21T07:57:28.142Z,99.90
2019-03-21T08:00:41.576Z,99.90
2019-03-21T08:03:39.047Z,99.90
2019-03-21T08:06:18.646Z,99.90
2019-03-21T08:09:13.531Z,99.90
2019-03-21T08:11:53.396Z,99.90
2019-03-21T08:17:42.108Z,99.90
2019-03-21T08:20:22.318Z,99.90
2019-03-21T08:23:16.173Z,99.90
2019-03-21T08:26:06.693Z,99.90
2019-03-21T08:28:45.330Z,99.90
2019-03-21T08:31:57.769Z,99.90
2019-03-21T08:34:45.259Z,99.90
2019-03-21T08:38:07.520Z,99.90
2019-03-21T08:41:28.721Z,99.90
2019-03-21T08:44:27.603Z,99.90
2019-03-21T08:47:27.718Z,96.70
2019-03-21T08:49:59.425Z,95.90
2019-03-21T08:52:52.263Z,97.20
2019-03-21T08:55:28.483Z,96.20
2019-03-21T08:58:29.111Z,96.30
2019-03-21T09:01:33.089Z,95.60
2019-03-21T09:04:43.363Z,94.50
2019-03-21T09:07:34.106Z,96.10
2019-03-21T09:10:18.851Z,93.70
2019-03-21T09:13:06.378Z,93.00
2019-03-21T09:16:10.733Z,92.20
2019-03-21T09:19:17.921Z,91.20
2019-03-21T09:22:39.035Z,92.40
2019-03-21T09:25:21.499Z,94.00
2019-03-21T09:28:02.836Z,93.50
2019-03-21T09:30:58.789Z,93.10
2019-03-21T09:34:18.586Z,91.90
2019-03-21T09:37:10.233Z,92.70
2019-03-21T09:40:16.379Z,94.40
2019-03-21T09:43:15.687Z,93.30
2019-03-21T09:46:13.411Z,94.30
2019-03-21T09:49:11.609Z,95.40
2019-03-21T09:52:02.038Z,95.60
2019-03-21T09:54:50.367Z,93.70
2019-03-21T09:57:54.074Z,94.50
2019-03-21T10:00:54.809Z,93.90
2019-03-21T10:03:44.702Z,93.60
2019-03-21T10:06:58.231Z,95.60
2019-03-21T10:09:41.584Z,95.70
2019-03-21T10:12:59.419Z,97.10
2019-03-21T10:16:09.492Z,99.60
2019-03-21T10:18:59.931Z,98.30
2019-03-21T10:21:47.025Z,99.00
2019-03-21T10:24:50.688Z,99.90
2019-03-21T10:27:56.603Z,99.90
2019-03-21T10:31:02.682Z,99.90
2019-03-21T10:34:26.115Z,99.90
2019-03-21T10:40:56.162Z,99.90
2019-03-21T10:46:54.383Z,99.90
2019-03-21T10:49:38.157Z,99.90
2019-03-21T10:52:19.594Z,99.90
2019-03-21T10:55:15.203Z,99.90
2019-03-21T10:58:32.797Z,99.90
2019-03-21T11:02:06.946Z,99.90
2019-03-21T11:04:47.719Z,99.90
2019-03-21T11:08:00.440Z,99.90
2019-03-21T11:10:49.911Z,99.90
2019-03-21T11:22:06.643Z,96.10
2019-03-21T11:25:37.848Z,97.40
2019-03-21T11:28:32.768Z,99.10
2019-03-21T11:31:50.051Z,99.90
2019-03-21T11:34:23.855Z,99.10
2019-03-21T11:37:58.328Z,97.30
2019-03-21T11:40:55.029Z,97.50
2019-03-21T11:44:02.772Z,98.50
2019-03-21T11:47:20.776Z,99.10
2019-03-21T11:50:02.924Z,94.60
2019-03-21T11:56:49.265Z,96.80
2019-03-21T12:00:14.642Z,95.90
2019-03-21T12:07:30.506Z,97.00
2019-03-21T12:09:59.026Z,97.70
2019-03-21T12:12:43.742Z,99.90
2019-03-21T12:15:57.857Z,99.90
2019-03-21T12:18:54.146Z,99.90
2019-03-21T12:21:42.343Z,99.90
2019-03-21T12:24:40.571Z,99.90
2019-03-21T12:31:53.775Z,99.90
2019-03-21T12:38:28.996Z,99.90
2019-03-21T12:41:26.099Z,99.90
2019-03-21T12:47:39.013Z,97.70
2019-03-21T12:50:56.134Z,95.70
2019-03-21T12:54:01.188Z,99.40
2019-03-21T12:56:53.222Z,99.20
2019-03-21T13:00:29.583Z,99.10
2019-03-21T13:04:02.314Z,97.00
2019-03-21T13:19:19.851Z,99.90
2019-03-21T13:22:34.861Z,99.90
2019-03-21T13:26:26.100Z,99.90
2019-03-21T13:32:54.906Z,99.90
2019-03-21T13:33:01.221Z,99.90
2019-03-21T13:36:25.838Z,99.90
2019-03-21T13:42:05.893Z,99.90
2019-03-21T13:45:30.244Z,99.90
2019-03-21T13:48:54.918Z,99.90
2019-03-21T13:52:44.911Z,99.90
2019-03-21T13:55:45.223Z,99.90
2019-03-21T13:59:07.023Z,99.90
2019-03-21T14:02:42.005Z,99.90
2019-03-21T14:05:41.955Z,99.90
2019-03-21T14:08:33.784Z,99.90
2019-03-21T14:11:38.616Z,99.90
2019-03-21T14:15:03.953Z,99.90
2019-03-21T14:18:35.238Z,99.90
2019-03-21T14:22:21.380Z,99.90
2019-03-21T14:25:44.367Z,99.90
2019-03-21T14:28:43.528Z,99.90
2019-03-21T14:36:08.423Z,99.90
2019-03-21T14:39:34.489Z,99.90
2019-03-21T14:49:54.496Z,99.90
2019-03-21T14:56:17.266Z,99.90
2019-03-21T14:59:09.242Z,99.90
2019-03-21T15:02:40.788Z,99.90
2019-03-21T15:06:21.204Z,99.90
2019-03-21T15:13:18.483Z,99.90
2019-03-21T15:32:15.537Z,99.90
2019-03-21T15:35:35.541Z,99.90
2019-03-21T15:39:07.839Z,99.90
2019-03-21T15:42:44.667Z,99.90
2019-03-21T15:45:39.136Z,99.90
2019-03-21T15:56:01.769Z,99.90
2019-03-21T15:59:16.191Z,99.90
2019-03-21T16:02:39.785Z,99.90
2019-03-21T16:37:34.124Z,99.90
2019-03-21T16:40:54.898Z,99.90
2019-03-21T16:44:17.068Z,99.90
2019-03-21T16:47:46.456Z,99.90
2019-03-21T16:58:43.148Z,99.90
2019-03-21T17:02:01.480Z,99.90
2019-03-21T17:05:24.768Z,99.90
2019-03-21T17:09:14.234Z,99.90
2019-03-21T17:20:55.461Z,99.90
2019-03-21T17:33:06.406Z,99.90
2019-03-21T17:48:38.818Z,99.90
2019-03-21T18:12:20.917Z,99.90
2019-03-21T19:14:33.687Z,99.90
2019-03-21T19:34:37.951Z,99.90
2019-03-21T19:38:23.961Z,99.90
2019-03-21T20:10:00.458Z,99.90
2019-03-21T20:17:41.493Z,99.90
2019-03-21T20:25:19.732Z,99.90
2019-03-21T20:36:19.410Z,99.90
2019-03-21T20:40:25.839Z,99.90
2019-03-21T20:43:39.589Z,99.90
2019-03-21T20:46:56.573Z,99.90
2019-03-21T20:50:22.781Z,99.90
2019-03-21T20:57:15.690Z,99.90
2019-03-21T21:01:11.841Z,99.90
2019-03-21T21:04:37.392Z,99.90
2019-03-21T21:07:58.962Z,99.90
2019-03-21T21:11:05.304Z,99.90
2019-03-21T21:14:09.432Z,99.90
2019-03-21T21:17:04.012Z,99.90
2019-03-21T21:28:00.301Z,99.90
2019-03-21T21:31:15.481Z,99.90
2019-03-21T21:34:12.670Z,99.90
2019-03-21T21:41:02.818Z,99.90
2019-03-21T21:44:29.722Z,99.90
2019-03-21T21:48:00.949Z,99.90
2019-03-21T21:51:32.693Z,99.90
2019-03-21T21:54:19.643Z,99.90
2019-03-21T21:57:16.515Z,99.90
2019-03-21T22:00:53.376Z,99.90
2019-03-21T22:06:54.969Z,99.90
2019-03-21T22:09:49.159Z,99.90
2019-03-21T22:10:20.889Z,99.90
2019-03-21T22:13:00.277Z,99.90
2019-03-21T22:19:54.144Z,99.90
2019-03-21T22:22:37.372Z,99.90
2019-03-21T22:26:29.488Z,99.90
2019-03-21T22:29:48.126Z,99.90
2019-03-21T22:33:27.148Z,99.90
2019-03-21T22:36:21.696Z,99.90
2019-03-21T22:39:04.361Z,99.90
2019-03-21T22:42:07.657Z,99.90
2019-03-21T22:48:16.459Z,99.90
2019-03-21T22:51:19.677Z,99.90
2019-03-21T22:58:36.542Z,99.90
2019-03-21T23:02:08.268Z,99.90
2019-03-21T23:05:03.523Z,99.90
2019-03-21T23:07:56.827Z,99.90
2019-03-21T23:11:27.780Z,99.90
2019-03-21T23:14:39.724Z,99.90
2019-03-21T23:21:27.157Z,99.90
2019-03-21T23:24:39.309Z,99.90
2019-03-21T23:28:19.215Z,99.90
2019-03-21T23:31:26.710Z,99.90
2019-03-21T23:35:28.315Z,99.90
2019-03-21T23:39:11.697Z,99.90
2019-03-21T23:42:11.817Z,99.90
2019-03-21T23:45:47.596Z,99.90
2019-03-21T23:48:41.618Z,99.90
2019-03-21T23:52:29.978Z,99.90
2019-03-21T23:56:05.362Z,99.90
2019-03-21T23:59:44.492Z,99.90
